Time;durP1;ratioP1;P1;durP2;ratioP2;P2;SDS_P1;SDS_P2;PMS_P1;PMS_P2;Temp;Humidity;BMP_temperature;BMP_pressure;BME280_temperature;BME280_humidity;BME280_pressure;Samples;Min_cycle;Max_cycle;Signal;HPM_P1;HPM_P2
2023/08/25 04:00:28;;;;;;;9.13;8.20;;;18.40;99.90;;;;;;6082967;23;20733;-69
2023/08/25 04:02:54;;;;;;;8.93;8.03;;;18.40;99.90;;;;;;6150621;23;20404;-69
2023/08/25 04:05:21;;;;;;;6.60;6.00;;;18.40;99.90;;;;;;6161084;23;20452;-71
2023/08/25 04:07:48;;;;;;;6.83;6.33;;;18.40;99.90;;;;;;6151808;23;20429;-71
2023/08/25 04:10:16;;;;;;;7.87;7.17;;;18.40;99.90;;;;;;6151380;23;20489;-70
2023/08/25 04:12:43;;;;;;;9.23;7.27;;;18.40;99.90;;;;;;6154526;23;20436;-71
2023/08/25 04:15:10;;;;;;;9.50;7.13;;;18.40;99.90;;;;;;6153603;23;20423;-70
2023/08/25 04:17:38;;;;;;;7.27;5.83;;;18.40;99.90;;;;;;6152157;23;20432;-71
2023/08/25 04:20:05;;;;;;;7.27;6.27;;;18.30;99.90;;;;;;6153085;23;20910;-67
2023/08/25 04:22:32;;;;;;;8.23;7.43;;;18.30;99.90;;;;;;6177525;23;20442;-70
2023/08/25 04:24:59;;;;;;;11.40;9.37;;;18.40;99.90;;;;;;6173247;23;20424;-70
2023/08/25 04:27:25;;;;;;;8.70;7.80;;;18.40;99.90;;;;;;6152942;23;20433;-70
2023/08/25 04:29:52;;;;;;;9.40;8.20;;;18.40;99.90;;;;;;6151979;23;20416;-68
2023/08/25 04:32:20;;;;;;;8.43;7.67;;;18.40;99.90;;;;;;6153495;23;20807;-68
2023/08/25 04:34:48;;;;;;;11.90;8.27;;;18.40;99.90;;;;;;6152631;23;20759;-68
2023/08/25 04:37:14;;;;;;;8.33;7.63;;;18.40;99.90;;;;;;6153447;23;20398;-68
2023/08/25 04:39:41;;;;;;;9.63;7.40;;;18.40;99.90;;;;;;6151738;23;20773;-68
2023/08/25 04:42:08;;;;;;;8.97;7.57;;;18.40;99.90;;;;;;6147878;23;20770;-68
2023/08/25 04:44:35;;;;;;;15.90;8.10;;;18.30;99.90;;;;;;6152961;23;20428;-68
2023/08/25 04:47:02;;;;;;;14.87;8.00;;;18.40;99.90;;;;;;6150828;23;20749;-67
2023/08/25 04:49:29;;;;;;;9.47;8.57;;;18.40;99.90;;;;;;6150438;23;20465;-67
2023/08/25 04:51:58;;;;;;;11.17;7.73;;;18.40;99.90;;;;;;6150252;23;20952;-67
2023/08/25 04:54:25;;;;;;;8.77;7.47;;;18.50;99.90;;;;;;6150887;23;20764;-68
2023/08/25 04:56:52;;;;;;;9.77;7.77;;;18.50;99.90;;;;;;6150556;23;20420;-68
2023/08/25 04:59:18;;;;;;;11.60;9.33;;;18.50;99.90;;;;;;6149368;23;20422;-68
2023/08/25 05:01:45;;;;;;;13.57;8.57;;;18.60;99.90;;;;;;6149795;23;20453;-68
2023/08/25 05:04:12;;;;;;;15.00;9.70;;;18.60;99.90;;;;;;6151488;23;20433;-68
2023/08/25 05:06:38;;;;;;;9.30;8.40;;;18.60;99.90;;;;;;6150213;23;20446;-68
2023/08/25 05:09:07;;;;;;;10.00;8.67;;;18.70;99.90;;;;;;6149531;23;20502;-68
2023/08/25 05:11:34;;;;;;;9.53;7.80;;;18.70;99.90;;;;;;6151170;23;20448;-68
2023/08/25 05:14:00;;;;;;;12.60;8.10;;;18.80;99.90;;;;;;6151415;23;20431;-68
2023/08/25 05:16:27;;;;;;;8.33;6.93;;;18.80;99.90;;;;;;6153715;23;20424;-68
2023/08/25 05:18:54;;;;;;;9.70;7.73;;;18.90;99.90;;;;;;6153817;23;20940;-68
2023/08/25 05:21:21;;;;;;;9.00;7.50;;;18.90;99.90;;;;;;6153465;23;20449;-68
2023/08/25 05:23:48;;;;;;;9.40;7.97;;;19.00;99.90;;;;;;6153080;23;20422;-68
2023/08/25 05:26:16;;;;;;;18.73;9.23;;;19.00;99.90;;;;;;6151744;23;20453;-69
2023/08/25 05:28:44;;;;;;;9.67;8.60;;;19.10;99.90;;;;;;6153666;23;20425;-69
2023/08/25 05:31:11;;;;;;;17.00;10.37;;;19.10;99.90;;;;;;6153215;23;20438;-68
2023/08/25 05:33:38;;;;;;;12.57;8.80;;;19.20;99.90;;;;;;6153198;23;20419;-68
2023/08/25 05:36:05;;;;;;;9.47;7.83;;;19.20;99.90;;;;;;6153221;23;20414;-68
2023/08/25 05:38:32;;;;;;;10.20;9.03;;;19.30;99.90;;;;;;6152839;23;20429;-69
2023/08/25 05:40:58;;;;;;;12.30;9.43;;;19.30;99.90;;;;;;6152539;23;20446;-69
2023/08/25 05:43:26;;;;;;;12.00;9.50;;;19.40;99.90;;;;;;6152760;23;20854;-69
2023/08/25 05:45:53;;;;;;;10.33;8.57;;;19.50;99.90;;;;;;6152781;23;20443;-69
2023/08/25 05:48:20;;;;;;;11.80;10.20;;;19.50;99.90;;;;;;6153378;23;20423;-69
2023/08/25 05:50:46;;;;;;;11.07;9.43;;;19.60;99.90;;;;;;6152625;23;20445;-69
2023/08/25 05:53:13;;;;;;;9.40;8.50;;;19.70;99.90;;;;;;6153933;23;20419;-69
2023/08/25 05:55:41;;;;;;;14.17;9.83;;;19.70;99.90;;;;;;6153974;23;20425;-69
2023/08/25 05:58:07;;;;;;;9.60;8.70;;;19.70;99.90;;;;;;6154327;23;20418;-69
2023/08/25 06:00:36;;;;;;;12.63;8.70;;;19.80;99.90;;;;;;6152989;23;20454;-69
2023/08/25 06:03:03;;;;;;;11.47;8.03;;;19.90;99.90;;;;;;6163896;23;20428;-69
2023/08/25 06:05:30;;;;;;;11.27;10.20;;;19.90;99.90;;;;;;6153766;23;20428;-69
2023/08/25 06:07:57;;;;;;;9.20;8.23;;;20.00;99.90;;;;;;6154635;23;20414;-69
2023/08/25 06:10:24;;;;;;;10.47;8.67;;;20.10;99.90;;;;;;6152846;23;20570;-69
2023/08/25 06:12:51;;;;;;;14.40;8.00;;;20.20;99.90;;;;;;6153221;23;20417;-69
2023/08/25 06:15:18;;;;;;;9.27;8.37;;;20.20;99.90;;;;;;6153695;23;20426;-69
2023/08/25 06:17:46;;;;;;;7.83;7.07;;;20.40;99.90;;;;;;6154829;23;20409;-69
2023/08/25 06:20:12;;;;;;;8.30;7.20;;;20.60;99.90;;;;;;6153222;23;20428;-69
2023/08/25 06:22:41;;;;;;;8.13;7.43;;;20.70;99.90;;;;;;6153816;23;20910;-69
2023/08/25 06:25:08;;;;;;;7.77;6.97;;;20.80;99.90;;;;;;6152948;23;20418;-69
2023/08/25 06:27:35;;;;;;;6.60;6.00;;;20.90;99.90;;;;;;6154087;23;20442;-69
2023/08/25 06:30:02;;;;;;;15.73;5.80;;;20.90;99.90;;;;;;6153782;23;20426;-69
2023/08/25 06:32:29;;;;;;;7.03;6.43;;;20.90;99.90;;;;;;6153934;23;20926;-68
2023/08/25 06:34:57;;;;;;;7.10;6.50;;;21.00;99.90;;;;;;6152223;23;20422;-69
2023/08/25 06:37:24;;;;;;;7.30;6.60;;;21.10;99.90;;;;;;6152579;23;20424;-67
2023/08/25 06:39:50;;;;;;;8.63;7.00;;;21.10;99.90;;;;;;6154638;23;20419;-67
2023/08/25 06:42:17;;;;;;;8.33;7.60;;;21.20;99.90;;;;;;6155857;23;20445;-68
2023/08/25 06:44:44;;;;;;;7.07;6.47;;;21.20;99.90;;;;;;6154029;23;21275;-68
2023/08/25 06:47:11;;;;;;;7.83;7.13;;;21.30;99.90;;;;;;6155491;23;20832;-68
2023/08/25 06:49:38;;;;;;;6.60;6.00;;;21.40;99.90;;;;;;6155303;23;21079;-68
2023/08/25 06:52:06;;;;;;;7.63;6.70;;;21.40;99.90;;;;;;6155912;23;20439;-68
2023/08/25 06:54:33;;;;;;;7.87;7.03;;;21.40;99.90;;;;;;6155190;23;20420;-68
2023/08/25 06:56:59;;;;;;;6.43;5.93;;;21.50;99.90;;;;;;6156070;23;20426;-68
2023/08/25 06:59:26;;;;;;;10.90;7.70;;;21.50;99.90;;;;;;6154826;23;20937;-68
2023/08/25 07:01:53;;;;;;;7.80;7.00;;;21.60;99.90;;;;;;6154101;23;20451;-67
2023/08/25 07:04:20;;;;;;;9.20;8.23;;;21.70;99.90;;;;;;6155894;23;20724;-67
2023/08/25 07:06:47;;;;;;;12.13;8.13;;;21.60;99.90;;;;;;6155338;23;20475;-68
2023/08/25 07:09:15;;;;;;;8.83;7.93;;;21.70;99.90;;;;;;6155725;23;20423;-68
2023/08/25 07:11:42;;;;;;;8.53;7.70;;;21.80;99.90;;;;;;6154913;23;20438;-68
2023/08/25 07:14:09;;;;;;;9.93;8.40;;;21.90;99.90;;;;;;6155732;23;20931;-68
2023/08/25 07:16:36;;;;;;;7.23;6.53;;;21.90;99.90;;;;;;6154566;23;20421;-68
2023/08/25 07:19:03;;;;;;;11.13;9.30;;;22.00;99.90;;;;;;6155691;23;20471;-68
2023/08/25 07:21:30;;;;;;;10.73;9.73;;;22.00;99.90;;;;;;6155706;23;20439;-69
2023/08/25 07:23:56;;;;;;;8.90;8.03;;;22.00;99.90;;;;;;6155400;23;21056;-69
2023/08/25 07:26:25;;;;;;;9.00;7.53;;;22.10;99.90;;;;;;6154119;23;20453;-69
2023/08/25 07:28:52;;;;;;;9.10;8.20;;;22.10;99.90;;;;;;6155617;23;20422;-69
2023/08/25 07:31:19;;;;;;;11.40;8.07;;;22.10;99.90;;;;;;6155529;23;20440;-68
2023/08/25 07:33:45;;;;;;;9.90;8.40;;;22.10;99.90;;;;;;6154952;23;20430;-69
2023/08/25 07:36:12;;;;;;;9.10;8.20;;;22.10;99.90;;;;;;6154317;23;20418;-69
2023/08/25 07:38:39;;;;;;;13.60;7.67;;;22.20;99.90;;;;;;6155577;23;20419;-69
2023/08/25 07:41:05;;;;;;;11.00;9.53;;;22.20;99.90;;;;;;6154362;23;20444;-69
2023/08/25 07:43:33;;;;;;;7.60;6.60;;;22.40;99.90;;;;;;6155104;23;20422;-68
2023/08/25 07:46:00;;;;;;;12.87;9.20;;;22.40;99.90;;;;;;6154739;23;20427;-68
2023/08/25 07:48:27;;;;;;;10.30;8.60;;;22.50;99.90;;;;;;6154603;23;20953;-66
2023/08/25 07:50:54;;;;;;;8.67;7.97;;;22.50;99.90;;;;;;6154635;23;20446;-68
2023/08/25 07:53:20;;;;;;;9.53;8.00;;;22.60;99.90;;;;;;6154637;23;20427;-71
2023/08/25 07:55:47;;;;;;;9.87;8.87;;;22.70;99.90;;;;;;6154528;23;20421;-69
2023/08/25 07:58:14;;;;;;;6.97;6.30;;;22.80;99.90;;;;;;6155645;23;20428;-69
2023/08/25 08:00:43;;;;;;;9.37;8.20;;;22.80;99.90;;;;;;6153231;23;20459;-70
2023/08/25 08:03:10;;;;;;;8.53;7.83;;;23.00;99.90;;;;;;6154823;23;20772;-70
2023/08/25 08:05:38;;;;;;;8.73;7.90;;;23.10;99.90;;;;;;6153189;23;20449;-70
2023/08/25 08:08:05;;;;;;;8.43;7.50;;;23.10;99.90;;;;;;6154676;23;20447;-70
2023/08/25 08:10:32;;;;;;;8.10;7.37;;;23.30;99.90;;;;;;6153634;23;20427;-70
2023/08/25 08:13:00;;;;;;;8.43;7.70;;;23.30;99.90;;;;;;6155121;23;20460;-69
2023/08/25 08:15:27;;;;;;;10.43;7.50;;;23.40;99.90;;;;;;6154664;23;20461;-69
2023/08/25 08:17:55;;;;;;;7.53;6.93;;;23.40;99.90;;;;;;6154063;23;20930;-69
2023/08/25 08:20:23;;;;;;;8.77;8.07;;;23.30;99.90;;;;;;6153816;23;20420;-69
2023/08/25 08:22:50;;;;;;;7.30;6.60;;;23.30;99.90;;;;;;6154689;23;20442;-69
2023/08/25 08:25:16;;;;;;;7.47;6.67;;;23.40;99.90;;;;;;6153617;23;20443;-69
2023/08/25 08:27:44;;;;;;;8.57;6.90;;;23.50;99.90;;;;;;6154643;23;20443;-69
2023/08/25 08:30:11;;;;;;;6.63;6.00;;;23.60;99.90;;;;;;6154282;23;20421;-69
2023/08/25 08:32:39;;;;;;;7.73;7.10;;;23.70;99.90;;;;;;6154421;23;20427;-69
2023/08/25 08:35:08;;;;;;;7.60;6.27;;;23.70;99.90;;;;;;6153523;23;20932;-69
2023/08/25 08:37:35;;;;;;;6.80;6.20;;;23.80;99.90;;;;;;6154692;23;20433;-69
2023/08/25 08:40:03;;;;;;;7.03;6.33;;;23.70;99.90;;;;;;6153859;23;20912;-69
2023/08/25 08:42:30;;;;;;;6.00;5.50;;;23.60;99.90;;;;;;6154275;23;20444;-69
2023/08/25 08:45:01;;;;;;;6.90;6.20;;;23.70;99.90;;;;;;6154701;23;20430;-69
2023/08/25 08:47:28;;;;;;;6.67;6.10;;;23.70;99.90;;;;;;6153829;23;20442;-69
2023/08/25 08:49:56;;;;;;;6.50;6.00;;;23.90;99.90;;;;;;6153334;23;20485;-69
2023/08/25 08:52:24;;;;;;;6.57;6.03;;;23.90;99.90;;;;;;6154506;23;20445;-69
2023/08/25 08:54:51;;;;;;;8.90;6.30;;;24.00;99.90;;;;;;6154859;23;20425;-69
2023/08/25 08:57:18;;;;;;;5.47;4.97;;;24.10;99.90;;;;;;6154246;23;20425;-69
2023/08/25 08:59:45;;;;;;;5.23;4.93;;;24.20;99.90;;;;;;6153652;23;20779;-69
2023/08/25 09:02:14;;;;;;;7.00;6.43;;;24.30;99.90;;;;;;6153309;23;20448;-70
2023/08/25 09:04:42;;;;;;;4.93;4.63;;;24.30;99.90;;;;;;6155111;23;20422;-70
2023/08/25 09:07:10;;;;;;;5.50;5.10;;;24.00;99.90;;;;;;6154573;23;20447;-70
2023/08/25 09:09:40;;;;;;;5.43;5.03;;;23.90;99.90;;;;;;6153528;23;20424;-69
2023/08/25 09:12:07;;;;;;;5.90;5.50;;;23.90;99.90;;;;;;6153923;23;20446;-69
2023/08/25 09:14:34;;;;;;;4.83;4.53;;;24.00;99.90;;;;;;6154785;23;20443;-69
2023/08/25 09:17:02;;;;;;;5.53;5.20;;;24.00;99.90;;;;;;6153873;23;20866;-69
2023/08/25 09:19:30;;;;;;;6.40;5.77;;;24.00;99.90;;;;;;6153422;23;20908;-69
2023/08/25 09:21:56;;;;;;;5.70;5.30;;;24.10;99.90;;;;;;6153844;23;20438;-69
2023/08/25 09:24:23;;;;;;;4.70;4.47;;;23.90;99.90;;;;;;6153359;23;20420;-69
2023/08/25 09:26:51;;;;;;;5.40;5.00;;;23.90;99.90;;;;;;6155191;23;20427;-70
2023/08/25 09:29:18;;;;;;;4.50;4.30;;;23.90;99.90;;;;;;6154082;23;20419;-70
2023/08/25 09:31:45;;;;;;;5.80;5.40;;;23.80;99.90;;;;;;6153245;23;20450;-69
2023/08/25 09:34:14;;;;;;;6.90;6.40;;;23.80;99.90;;;;;;6154369;23;20429;-69
2023/08/25 09:36:52;;;;;;;6.50;5.90;;;23.70;99.90;;;;;;6152032;23;20426;-69
2023/08/25 09:39:19;;;;;;;6.93;6.33;;;23.70;99.90;;;;;;6153202;23;20413;-69
2023/08/25 09:41:46;;;;;;;6.07;5.43;;;23.70;99.90;;;;;;6153566;23;20479;-69
2023/08/25 09:44:16;;;;;;;7.17;6.60;;;23.90;99.90;;;;;;6153636;23;20428;-70
2023/08/25 09:46:44;;;;;;;5.23;4.93;;;23.90;99.90;;;;;;6154167;23;20539;-69
2023/08/25 09:49:12;;;;;;;6.43;6.03;;;24.00;99.90;;;;;;6153636;23;20422;-69
2023/08/25 09:51:41;;;;;;;6.60;6.10;;;24.00;99.90;;;;;;6152890;23;20441;-69
2023/08/25 09:54:09;;;;;;;6.60;5.97;;;24.00;99.90;;;;;;6154032;23;20421;-68
2023/08/25 09:56:37;;;;;;;7.07;6.37;;;23.90;99.90;;;;;;6153301;23;20452;-68
2023/08/25 09:59:05;;;;;;;7.57;7.00;;;24.00;99.90;;;;;;6153655;23;20414;-68
2023/08/25 10:01:34;;;;;;;7.33;6.70;;;24.10;99.90;;;;;;6152357;23;20444;-69
2023/08/25 10:04:02;;;;;;;5.73;5.30;;;24.10;99.90;;;;;;6155221;23;20423;-69
2023/08/25 10:06:31;;;;;;;6.50;6.00;;;24.30;99.90;;;;;;6153578;23;20415;-69
2023/08/25 10:08:58;;;;;;;6.60;6.20;;;24.20;99.90;;;;;;6153468;23;20777;-69
2023/08/25 10:11:29;;;;;;;5.83;5.43;;;24.30;99.90;;;;;;6153240;23;20441;-68
2023/08/25 10:13:56;;;;;;;7.00;6.40;;;24.40;99.90;;;;;;6151824;23;20405;-69
2023/08/25 10:16:26;;;;;;;7.60;7.00;;;24.40;99.90;;;;;;6152891;23;20421;-68
2023/08/25 10:18:57;;;;;;;6.73;5.80;;;24.40;99.90;;;;;;6153824;23;20712;-69
2023/08/25 10:21:25;;;;;;;5.90;5.60;;;24.50;99.90;;;;;;6154516;23;20476;-68
2023/08/25 10:23:54;;;;;;;6.60;6.00;;;24.40;99.90;;;;;;6153103;23;20758;-69
2023/08/25 10:26:22;;;;;;;6.53;6.13;;;24.40;99.90;;;;;;6148955;23;20430;-68
2023/08/25 10:28:49;;;;;;;6.13;5.57;;;24.40;99.90;;;;;;6149092;23;20443;-69
2023/08/25 10:31:16;;;;;;;7.10;6.40;;;24.30;99.90;;;;;;6148004;23;20913;-68
2023/08/25 10:33:46;;;;;;;7.47;6.90;;;24.20;99.90;;;;;;6150983;23;20969;-69
2023/08/25 10:36:17;;;;;;;8.23;7.10;;;24.10;99.90;;;;;;6151542;23;20427;-68
2023/08/25 10:38:47;;;;;;;5.93;5.63;;;24.00;99.90;;;;;;6151993;23;20406;-70
2023/08/25 10:41:16;;;;;;;6.80;5.77;;;24.00;99.90;;;;;;6152240;23;20505;-68
2023/08/25 10:43:51;;;;;;;6.13;5.73;;;23.90;99.90;;;;;;6152601;23;20461;-69
2023/08/25 10:46:19;;;;;;;6.30;5.70;;;23.90;99.90;;;;;;6151304;23;20406;-67
2023/08/25 10:48:47;;;;;;;7.60;7.10;;;23.90;99.90;;;;;;6150198;23;20454;-69
2023/08/25 10:51:19;;;;;;;6.80;6.10;;;24.00;99.90;;;;;;6152498;23;20441;-69
2023/08/25 10:53:50;;;;;;;6.80;6.20;;;23.90;99.90;;;;;;6153885;23;20413;-69
2023/08/25 10:56:22;;;;;;;7.50;6.70;;;23.90;99.90;;;;;;6152653;23;20413;-69
2023/08/25 10:58:57;;;;;;;6.63;6.03;;;23.90;99.90;;;;;;6153123;23;20521;-69
2023/08/25 11:01:28;;;;;;;6.50;6.00;;;23.80;99.90;;;;;;6153010;23;20449;-69
2023/08/25 11:04:06;;;;;;;7.00;6.50;;;23.60;99.90;;;;;;6161827;23;20924;-68
2023/08/25 11:06:41;;;;;;;6.37;5.87;;;23.50;99.90;;;;;;6152914;23;20421;-69
2023/08/25 11:09:10;;;;;;;8.30;7.00;;;23.50;99.90;;;;;;6152860;23;20449;-69
2023/08/25 11:11:37;;;;;;;6.33;5.90;;;23.40;99.90;;;;;;6153557;23;20808;-69
2023/08/25 11:14:04;;;;;;;6.67;6.13;;;23.50;99.90;;;;;;6153496;23;20419;-69
2023/08/25 11:16:31;;;;;;;6.20;5.60;;;23.40;99.90;;;;;;6153466;23;20844;-69
2023/08/25 11:18:57;;;;;;;5.93;5.43;;;23.50;99.90;;;;;;6152513;23;20415;-69
2023/08/25 11:21:24;;;;;;;7.53;6.83;;;23.40;99.90;;;;;;6153633;23;20446;-69
2023/08/25 11:23:53;;;;;;;9.00;7.57;;;23.40;99.90;;;;;;6154160;23;20422;-69
2023/08/25 11:26:20;;;;;;;7.37;6.67;;;23.30;99.90;;;;;;6153524;23;20421;-71
2023/08/25 11:28:52;;;;;;;9.37;8.53;;;23.20;99.90;;;;;;6155154;23;20763;-69
2023/08/25 11:31:21;;;;;;;6.63;6.13;;;23.30;99.90;;;;;;6154974;23;20493;-69
2023/08/25 11:33:48;;;;;;;6.07;5.57;;;23.30;99.90;;;;;;6155295;23;20421;-69
2023/08/25 11:36:16;;;;;;;6.20;5.77;;;23.30;99.90;;;;;;6154278;23;20433;-69
2023/08/25 11:38:48;;;;;;;7.10;6.53;;;23.30;99.90;;;;;;6154385;23;20477;-70
2023/08/25 11:41:16;;;;;;;6.90;6.40;;;23.20;99.90;;;;;;6154874;23;20508;-69
2023/08/25 11:43:45;;;;;;;9.50;6.80;;;23.20;99.90;;;;;;6154867;23;20427;-68
2023/08/25 11:46:13;;;;;;;6.90;6.40;;;23.10;99.90;;;;;;6153702;23;20428;-71
2023/08/25 11:48:40;;;;;;;8.67;6.47;;;23.20;99.90;;;;;;6165120;23;20819;-71
2023/08/25 11:51:14;;;;;;;7.20;6.60;;;23.20;99.90;;;;;;6154748;23;20438;-71
2023/08/25 11:53:41;;;;;;;7.30;6.70;;;23.30;99.90;;;;;;6155047;23;20406;-69
2023/08/25 11:56:13;;;;;;;9.03;7.27;;;23.40;99.90;;;;;;6153875;23;20880;-70
2023/08/25 11:58:41;;;;;;;7.03;6.63;;;23.50;99.90;;;;;;6155563;23;20496;-70
2023/08/25 12:01:10;;;;;;;7.47;6.83;;;23.50;99.90;;;;;;6155389;23;20448;-70
2023/08/25 12:03:37;;;;;;;6.40;6.00;;;23.60;99.90;;;;;;6157225;23;20430;-70
2023/08/25 12:06:06;;;;;;;7.60;6.80;;;23.60;99.90;;;;;;6154127;23;20428;-72
2023/08/25 12:08:32;;;;;;;6.53;6.17;;;23.60;99.90;;;;;;6154662;23;20452;-70
2023/08/25 12:11:00;;;;;;;7.07;6.50;;;23.60;99.90;;;;;;6154763;23;20438;-70
2023/08/25 12:13:29;;;;;;;7.90;7.30;;;23.50;99.90;;;;;;6155524;23;20752;-71
2023/08/25 12:15:58;;;;;;;7.70;7.07;;;23.50;99.90;;;;;;6154645;23;20751;-71
2023/08/25 12:18:32;;;;;;;8.53;6.43;;;23.40;99.90;;;;;;6154739;23;20661;-71
2023/08/25 12:20:59;;;;;;;7.70;7.00;;;23.30;99.90;;;;;;6151925;23;20484;-70
2023/08/25 12:23:31;;;;;;;7.60;7.00;;;23.20;99.90;;;;;;6154260;23;20915;-71
2023/08/25 12:25:58;;;;;;;7.87;7.17;;;23.20;99.90;;;;;;6154952;23;20404;-71
2023/08/25 12:28:25;;;;;;;8.00;7.40;;;23.20;99.90;;;;;;6154459;23;20829;-70
2023/08/25 12:30:51;;;;;;;8.30;7.60;;;23.20;99.90;;;;;;6153069;23;20441;-71
2023/08/25 12:33:19;;;;;;;7.60;7.10;;;23.10;99.90;;;;;;6154974;23;20420;-71
2023/08/25 12:35:46;;;;;;;7.93;7.23;;;23.10;99.90;;;;;;6154796;23;20447;-71
2023/08/25 12:38:13;;;;;;;11.33;7.20;;;23.10;99.90;;;;;;6154826;23;20423;-71
2023/08/25 12:40:39;;;;;;;5.80;5.40;;;23.00;99.90;;;;;;6154113;23;20438;-70
2023/08/25 12:43:06;;;;;;;6.97;6.50;;;23.00;99.90;;;;;;6153453;23;20427;-71
2023/08/25 12:45:33;;;;;;;6.30;5.90;;;22.90;99.90;;;;;;6155988;23;20898;-71
2023/08/25 12:48:00;;;;;;;7.87;7.27;;;22.90;99.90;;;;;;6152381;23;20958;-71
2023/08/25 12:50:29;;;;;;;9.20;8.50;;;22.90;99.90;;;;;;6152125;23;20414;-69
2023/08/25 12:52:55;;;;;;;7.90;7.20;;;22.80;99.90;;;;;;6152900;23;20472;-70
2023/08/25 12:55:22;;;;;;;9.17;8.37;;;22.80;99.90;;;;;;6152665;23;20426;-68
2023/08/25 12:57:50;;;;;;;10.10;7.93;;;22.80;99.90;;;;;;6153387;23;20758;-69
2023/08/25 13:00:17;;;;;;;8.00;7.40;;;22.80;99.90;;;;;;6152258;23;20423;-69
2023/08/25 13:02:44;;;;;;;10.40;9.13;;;22.80;99.90;;;;;;6152958;23;20411;-69
2023/08/25 13:05:11;;;;;;;7.63;7.03;;;22.80;99.90;;;;;;6152029;23;20425;-69
2023/08/25 13:07:40;;;;;;;8.30;7.50;;;22.90;99.90;;;;;;6152130;23;20430;-69
2023/08/25 13:10:08;;;;;;;8.00;7.30;;;22.90;99.90;;;;;;6152597;23;20534;-69
2023/08/25 13:12:35;;;;;;;9.00;7.50;;;22.90;99.90;;;;;;6153618;23;20772;-69
2023/08/25 13:15:02;;;;;;;7.10;5.93;;;23.00;99.90;;;;;;6153312;23;20782;-69
2023/08/25 13:17:29;;;;;;;7.20;6.70;;;23.00;99.90;;;;;;6153601;23;20429;-69
2023/08/25 13:19:56;;;;;;;7.47;6.87;;;23.10;99.90;;;;;;6153228;23;20744;-69
2023/08/25 13:22:23;;;;;;;7.97;6.77;;;23.10;99.90;;;;;;6153762;23;20755;-69
2023/08/25 13:24:51;;;;;;;7.10;6.50;;;23.20;99.90;;;;;;6152082;23;21110;-69
2023/08/25 13:27:17;;;;;;;7.50;6.80;;;23.10;99.90;;;;;;6152501;23;20422;-69
2023/08/25 13:29:44;;;;;;;5.63;5.23;;;23.10;99.90;;;;;;6152327;23;20447;-69
2023/08/25 13:32:11;;;;;;;6.13;5.47;;;23.10;99.90;;;;;;6162411;23;20449;-69
2023/08/25 13:34:38;;;;;;;6.93;5.50;;;23.00;99.90;;;;;;6152733;23;20481;-70
2023/08/25 13:37:05;;;;;;;6.00;5.60;;;23.10;99.90;;;;;;6152273;23;20457;-69
2023/08/25 13:39:34;;;;;;;5.83;5.33;;;23.10;99.90;;;;;;6153722;23;20415;-69
2023/08/25 13:42:02;;;;;;;5.20;4.80;;;23.10;99.90;;;;;;6152344;23;20441;-70
2023/08/25 13:44:29;;;;;;;5.97;5.47;;;23.10;99.90;;;;;;6151357;23;20426;-70
2023/08/25 13:46:56;;;;;;;4.97;4.67;;;23.20;99.90;;;;;;6152749;23;20430;-70
2023/08/25 13:49:22;;;;;;;6.57;6.07;;;23.20;99.90;;;;;;6152337;23;20442;-70
2023/08/25 13:51:49;;;;;;;5.63;5.27;;;23.10;99.90;;;;;;6152806;23;20446;-69
2023/08/25 13:54:17;;;;;;;5.87;5.43;;;23.10;99.90;;;;;;6150820;23;20426;-70
2023/08/25 13:56:44;;;;;;;6.47;5.87;;;23.00;99.90;;;;;;6152574;23;20424;-70
2023/08/25 13:59:12;;;;;;;5.17;4.87;;;23.00;99.90;;;;;;6152185;23;20426;-69
2023/08/25 14:01:39;;;;;;;5.27;4.93;;;22.90;99.90;;;;;;6154828;23;20457;-70
2023/08/25 14:04:06;;;;;;;7.60;5.50;;;22.80;99.90;;;;;;6155507;23;20422;-70
2023/08/25 14:06:32;;;;;;;6.20;5.60;;;22.90;99.90;;;;;;6155370;23;20423;-69
2023/08/25 14:08:59;;;;;;;5.17;4.97;;;22.80;99.90;;;;;;6154458;23;20447;-70
2023/08/25 14:11:26;;;;;;;5.87;5.37;;;22.80;99.90;;;;;;6171121;23;20445;-70
2023/08/25 14:13:53;;;;;;;5.00;4.60;;;22.80;99.90;;;;;;6179649;23;20434;-70
2023/08/25 14:16:21;;;;;;;4.57;4.17;;;22.80;99.90;;;;;;6176405;23;20491;-70
2023/08/25 14:18:47;;;;;;;4.53;4.23;;;22.90;99.90;;;;;;6156407;23;20415;-70
2023/08/25 14:21:14;;;;;;;4.50;4.20;;;23.00;99.90;;;;;;6154091;23;20446;-70
2023/08/25 14:23:41;;;;;;;4.97;4.57;;;23.00;99.90;;;;;;6153521;23;20522;-70
2023/08/25 14:26:07;;;;;;;4.30;4.00;;;22.90;99.90;;;;;;6153135;23;20423;-70
2023/08/25 14:28:34;;;;;;;5.90;4.57;;;22.90;99.90;;;;;;6151647;23;20450;-69
2023/08/25 14:31:03;;;;;;;5.23;4.80;;;22.80;99.90;;;;;;6152783;23;20446;-69
2023/08/25 14:33:31;;;;;;;7.47;4.73;;;22.70;99.90;;;;;;6153538;23;20453;-69
2023/08/25 14:35:58;;;;;;;4.47;4.07;;;22.70;99.90;;;;;;6153403;23;20422;-69
2023/08/25 14:38:25;;;;;;;4.77;4.57;;;22.80;99.90;;;;;;6152657;23;20426;-70
2023/08/25 14:40:52;;;;;;;4.40;4.13;;;22.90;99.90;;;;;;6151846;23;20978;-69
2023/08/25 14:43:18;;;;;;;4.80;4.50;;;22.90;99.90;;;;;;6152535;23;20418;-69
2023/08/25 14:45:46;;;;;;;4.67;4.37;;;23.00;99.90;;;;;;6162075;23;20835;-69
2023/08/25 14:48:13;;;;;;;3.97;3.77;;;23.10;99.90;;;;;;6150345;23;20903;-69
2023/08/25 14:50:41;;;;;;;3.00;2.90;;;23.10;99.90;;;;;;6151487;23;20781;-69
2023/08/25 14:53:08;;;;;;;3.17;3.00;;;23.10;99.90;;;;;;6152886;23;20431;-69
2023/08/25 14:55:37;;;;;;;3.73;3.53;;;23.00;99.90;;;;;;6153229;23;20437;-69
2023/08/25 14:58:04;;;;;;;3.63;3.27;;;22.90;99.90;;;;;;6152858;23;20509;-69
2023/08/25 15:00:30;;;;;;;2.87;2.60;;;22.90;99.90;;;;;;6152944;23;20418;-69
2023/08/25 15:02:57;;;;;;;3.20;3.00;;;22.80;99.90;;;;;;6154240;23;20406;-69
2023/08/25 15:05:25;;;;;;;4.60;4.30;;;22.70;99.90;;;;;;6155520;23;20724;-69
2023/08/25 15:07:53;;;;;;;3.10;2.90;;;22.70;99.90;;;;;;6154196;23;20739;-69
2023/08/25 15:10:20;;;;;;;3.20;3.10;;;22.80;99.90;;;;;;6154123;23;20446;-69
2023/08/25 15:12:46;;;;;;;3.30;3.20;;;22.90;99.90;;;;;;6155242;23;20437;-69
2023/08/25 15:15:13;;;;;;;3.47;3.10;;;23.10;99.90;;;;;;6154475;23;20419;-69
2023/08/25 15:17:40;;;;;;;3.77;3.57;;;23.30;99.90;;;;;;6162652;23;20451;-69
2023/08/25 15:20:08;;;;;;;3.03;2.83;;;23.30;99.90;;;;;;6154913;23;20904;-70
2023/08/25 15:22:35;;;;;;;3.00;2.90;;;23.30;99.90;;;;;;6154753;23;20440;-69
2023/08/25 15:25:04;;;;;;;2.80;2.70;;;23.30;99.90;;;;;;6155368;23;20501;-69
2023/08/25 15:27:30;;;;;;;2.70;2.53;;;23.20;99.90;;;;;;6154616;23;20506;-69
2023/08/25 15:29:57;;;;;;;3.10;2.90;;;23.10;99.90;;;;;;6154301;23;20446;-69
2023/08/25 15:32:24;;;;;;;2.53;2.53;;;23.00;99.90;;;;;;6154048;23;20439;-69
2023/08/25 15:34:51;;;;;;;2.83;2.73;;;23.10;99.90;;;;;;6155217;23;20419;-69
2023/08/25 15:37:18;;;;;;;3.70;3.60;;;23.10;99.90;;;;;;6153961;23;20418;-70
2023/08/25 15:39:45;;;;;;;2.60;2.43;;;23.30;99.90;;;;;;6153546;23;20419;-69
2023/08/25 15:42:14;;;;;;;3.90;2.77;;;23.50;99.90;;;;;;6151824;23;20453;-70
2023/08/25 15:44:41;;;;;;;3.47;3.27;;;23.70;99.90;;;;;;6154892;23;20419;-69
2023/08/25 15:47:07;;;;;;;2.60;2.60;;;23.80;99.90;;;;;;6154898;23;20428;-70
2023/08/25 15:49:34;;;;;;;3.33;3.13;;;23.70;99.90;;;;;;6152508;23;20515;-69
2023/08/25 15:52:01;;;;;;;3.33;3.17;;;23.70;99.90;;;;;;6152662;23;20438;-69
2023/08/25 15:54:28;;;;;;;3.20;3.00;;;23.60;99.90;;;;;;6154836;23;20426;-69
2023/08/25 15:56:55;;;;;;;3.40;3.20;;;23.60;99.90;;;;;;6154212;23;20421;-69
2023/08/25 15:59:24;;;;;;;2.57;2.50;;;23.60;99.90;;;;;;6153211;23;20414;-69
2023/08/25 16:01:51;;;;;;;3.00;2.77;;;23.60;99.90;;;;;;6153349;23;20485;-69
2023/08/25 16:04:17;;;;;;;3.87;3.70;;;23.70;99.90;;;;;;6154267;23;20478;-69
2023/08/25 16:06:44;;;;;;;2.47;2.37;;;23.70;99.90;;;;;;6155274;23;20432;-69
2023/08/25 16:09:11;;;;;;;2.20;2.20;;;23.50;99.90;;;;;;6156140;23;20435;-70
2023/08/25 16:11:37;;;;;;;2.97;2.87;;;23.50;99.90;;;;;;6154521;23;20450;-69
2023/08/25 16:14:04;;;;;;;2.17;2.17;;;23.50;99.90;;;;;;6149563;23;20423;-69
2023/08/25 16:16:32;;;;;;;2.87;2.77;;;23.40;99.90;;;;;;6151490;23;20753;-69
2023/08/25 16:18:59;;;;;;;2.97;2.87;;;23.50;99.90;;;;;;6151528;23;20418;-69
2023/08/25 16:21:25;;;;;;;2.70;2.50;;;23.50;99.90;;;;;;6152454;23;20966;-66
2023/08/25 16:23:52;;;;;;;2.90;2.77;;;23.50;99.90;;;;;;6155333;23;20414;-71
2023/08/25 16:26:19;;;;;;;4.00;2.57;;;23.40;99.90;;;;;;6154783;23;20422;-69
2023/08/25 16:28:45;;;;;;;2.53;2.33;;;23.40;99.90;;;;;;6151925;23;20419;-71
2023/08/25 16:31:12;;;;;;;2.40;2.40;;;23.40;99.90;;;;;;6154162;23;20821;-71
2023/08/25 16:33:40;;;;;;;2.80;2.70;;;23.40;99.90;;;;;;6154028;23;20532;-71
2023/08/25 16:36:08;;;;;;;2.43;2.43;;;23.30;99.90;;;;;;6154461;23;20433;-71
2023/08/25 16:38:35;;;;;;;2.73;2.63;;;23.30;99.90;;;;;;6153558;23;20719;-72
2023/08/25 16:41:02;;;;;;;2.60;2.60;;;23.30;99.90;;;;;;6152093;23;20450;-71
2023/08/25 16:43:29;;;;;;;2.10;2.10;;;23.30;99.90;;;;;;6151932;23;20407;-71
2023/08/25 16:45:56;;;;;;;2.90;2.80;;;23.30;99.90;;;;;;6154633;23;20754;-72